CheckWX is a tool to help pilots better visualize weather data.  It is not intended as a substitute for an official pre-flight weather briefing.

13:43:39 UTC

KAUM METAR
Austin Municipal Airport
Austin, Minnesota, USA
Current

28 mins ago

KAUM 211316Z AUTO 18008G15KT 4SM HZ OVC009 22/18 A2988 RMK AO2 LTG DSNT W
Observed
Sep-21 @ 13:16 UTC
Wind
  • 180° at 8 KTS
  • Gusting to 15 KTS
Visibility
4 SM
Flight Rules
IFR
Conditions
Haze
Cloud Levels
  • Overcast at 900' AGL
Temperature
22°C / 72°F
Dewpoint
18°C / 64°F
Humidity
78%
Altimeter
29.88" Hg
Pressure
1011.82 hPa
Previous

1 hour ago

KAUM 211236Z AUTO 16009KT 10SM OVC013 22/18 A2988 RMK AO2 LTG DSNT N
Observed
Sep-21 @ 12:36 UTC
Wind
  • 160° at 9 KTS
Visibility
10 SM
Flight Rules
MVFR
Cloud Levels
  • Overcast at 1,300' AGL
Temperature
22°C / 72°F
Dewpoint
18°C / 64°F
Humidity
78%
Altimeter
29.88" Hg
Pressure
1011.82 hPa
Previous

1 hour ago

KAUM 211216Z AUTO 17010G15KT 10SM BKN010 BKN016 OVC025 22/18 A2988 RMK AO2
Observed
Sep-21 @ 12:16 UTC
Wind
  • 170° at 10 KTS
  • Gusting to 15 KTS
Visibility
10 SM
Flight Rules
MVFR
Cloud Levels
  • Broken at 1,000' AGL
  • Broken at 1,600' AGL
  • Overcast at 2,500' AGL
Temperature
22°C / 72°F
Dewpoint
18°C / 64°F
Humidity
78%
Altimeter
29.88" Hg
Pressure
1011.82 hPa